Terminal Aerodrome Forecast
Issued by NWS El Paso, TX

Home | Current Version | Previous Version | Text Only | Print | Product List | Glossary On
Versions: 1 2 3 4 5 6 7 8 9 10 11 12 13 14
000
FTUS44 KEPZ 242029 AAA
TAFELP
TAF AMD
KELP 242029Z 2420/2518 22009G16KT P6SM FEW080
     FM250300 33008KT P6SM SCT060 SCT100
     FM251400 27008KT P6SM SCT100=

USA.gov is the U.S. government's official web portal to all federal, state and local government web resources and services.